Terminal Aerodrome Forecast
Issued by NWS Lake Charles, LA

Home | Current Version | Previous Version | Text Only | Print | Product List | Glossary On
Versions: 1 2 3 4 5 6 7 8 9 10 11 12 13 14 15 16 17 18
000
FTUS44 KLCH 022300
TAFARA
TAF
KARA 022326Z 0300/0324 15005KT P6SM FEW025 OVC250
     FM031600 14008KT P6SM VCSH SCT030 PROB30 0318/0322 3SM SHRA
      BKN035=

USA.gov is the U.S. government's official web portal to all federal, state and local government web resources and services.